Time;durP1;ratioP1;P1;durP2;ratioP2;P2;SDS_P1;SDS_P2;PMS_P1;PMS_P2;Temp;Humidity;BMP_temperature;BMP_pressure;BME280_temperature;BME280_humidity;BME280_pressure;Samples;Min_cycle;Max_cycle;Signal;HPM_P1;HPM_P2
2023/03/23 00:01:49;;;;;;;;;;;;;;;11.36;93.49;100210.41;5023156;28;20422;-63
2023/03/23 00:04:15;;;;;;;;;;;;;;;11.34;93.04;100219.56;5022812;28;20373;-64
2023/03/23 00:06:40;;;;;;;;;;;;;;;11.33;93.04;100217.94;5028624;28;19920;-64
2023/03/23 00:09:05;;;;;;;;;;;;;;;11.32;93.20;100216.28;5020833;28;19926;-64
2023/03/23 00:11:31;;;;;;;;;;;;;;;11.33;92.91;100221.41;5022298;28;20434;-64
2023/03/23 00:14:00;;;;;;;;;;;;;;;11.33;92.85;100216.09;5018272;28;20295;-64
2023/03/23 00:16:31;;;;;;;;;;;;;;;11.33;92.83;100194.81;5023446;28;19921;-64
2023/03/23 00:18:58;;;;;;;;;;;;;;;11.35;92.69;100194.63;5018819;28;19925;-63
2023/03/23 00:21:25;;;;;;;;;;;;;;;11.39;92.60;100219.81;5017640;28;19917;-63
2023/03/23 00:23:50;;;;;;;;;;;;;;;11.39;92.47;100230.44;5022579;28;19917;-64
2023/03/23 00:26:15;;;;;;;;;;;;;;;11.38;92.19;100229.63;5023658;28;20003;-64
2023/03/23 00:28:40;;;;;;;;;;;;;;;11.40;92.31;100219.63;5018829;28;19921;-64
2023/03/23 00:31:07;;;;;;;;;;;;;;;11.42;92.22;100230.88;5019990;28;19921;-64
2023/03/23 00:33:37;;;;;;;;;;;;;;;11.44;91.99;100215.56;5025415;28;19928;-64
2023/03/23 00:36:02;;;;;;;;;;;;;;;11.44;91.92;100212.09;5025113;28;19956;-64
2023/03/23 00:38:28;;;;;;;;;;;;;;;11.45;91.92;100211.91;5027336;28;20386;-64
2023/03/23 00:40:53;;;;;;;;;;;;;;;11.46;91.78;100216.19;5024998;28;19959;-64
2023/03/23 00:43:19;;;;;;;;;;;;;;;11.45;91.76;100217.22;5024249;28;19917;-64
2023/03/23 00:45:44;;;;;;;;;;;;;;;11.45;91.98;100217.22;5020333;28;19957;-64
2023/03/23 00:48:12;;;;;;;;;;;;;;;11.47;92.02;100219.69;5019054;28;19917;-64
2023/03/23 00:50:37;;;;;;;;;;;;;;;11.48;92.04;100218.66;5019142;28;19921;-65
2023/03/23 00:53:02;;;;;;;;;;;;;;;11.49;92.10;100205.19;5023311;28;19921;-65
2023/03/23 00:55:27;;;;;;;;;;;;;;;11.47;92.09;100185.94;5024191;28;19967;-65
2023/03/23 00:57:53;;;;;;;;;;;;;;;11.44;92.51;100157.06;5020881;28;19924;-65
2023/03/23 01:00:19;;;;;;;;;;;;;;;11.39;92.92;100151.53;5017050;28;19929;-65
2023/03/23 01:02:45;;;;;;;;;;;;;;;11.35;92.70;100157.41;5021011;28;20394;-65
2023/03/23 01:05:10;;;;;;;;;;;;;;;11.34;92.75;100151.28;5014397;28;19918;-65
2023/03/23 01:07:36;;;;;;;;;;;;;;;11.36;92.97;100143.94;5024643;28;20358;-65
2023/03/23 01:10:01;;;;;;;;;;;;;;;11.37;93.03;100145.56;5021182;28;19921;-65
2023/03/23 01:12:26;;;;;;;;;;;;;;;11.37;92.93;100158.03;5020430;28;19948;-65
2023/03/23 01:14:52;;;;;;;;;;;;;;;11.37;93.03;100166.03;5020942;28;19924;-65
2023/03/23 01:17:18;;;;;;;;;;;;;;;11.39;92.98;100158.66;5019010;28;20445;-65
2023/03/23 01:19:43;;;;;;;;;;;;;;;11.38;93.07;100136.59;5025017;28;19925;-65
2023/03/23 01:22:09;;;;;;;;;;;;;;;11.36;93.45;100130.63;5021041;28;20275;-65
2023/03/23 01:24:34;;;;;;;;;;;;;;;11.36;93.25;100143.94;5028684;28;19924;-65
2023/03/23 01:27:06;;;;;;;;;;;;;;;11.33;93.40;100133.69;5024745;28;20004;-65
2023/03/23 01:29:31;;;;;;;;;;;;;;;11.29;93.70;100135.09;5024344;28;20478;-65
2023/03/23 01:31:56;;;;;;;;;;;;;;;11.30;94.03;100122.63;5025952;28;20011;-64
2023/03/23 01:34:21;;;;;;;;;;;;;;;11.32;94.08;100125.91;5019388;28;20358;-65
2023/03/23 01:36:47;;;;;;;;;;;;;;;11.36;93.91;100127.97;5025894;28;19917;-64
2023/03/23 01:39:12;;;;;;;;;;;;;;;11.37;93.85;100119.00;5026392;28;19913;-65
2023/03/23 01:41:39;;;;;;;;;;;;;;;11.41;93.40;100122.09;5029010;28;19952;-64
2023/03/23 01:44:04;;;;;;;;;;;;;;;11.45;93.37;100128.66;5022886;28;20255;-65
2023/03/23 01:46:33;;;;;;;;;;;;;;;11.47;93.24;100116.81;5029891;28;20424;-64
2023/03/23 01:49:10;;;;;;;;;;;;;;;11.51;93.00;100129.72;5024086;28;19924;-65
2023/03/23 01:51:39;;;;;;;;;;;;;;;11.53;92.94;100119.69;5026201;28;19921;-65
2023/03/23 01:54:06;;;;;;;;;;;;;;;11.57;92.99;100123.63;5024983;28;19913;-65
2023/03/23 01:56:37;;;;;;;;;;;;;;;11.60;92.64;100125.91;5018757;28;20012;-64
2023/03/23 01:59:03;;;;;;;;;;;;;;;11.61;92.54;100114.25;5028481;28;20402;-65
2023/03/23 02:01:28;;;;;;;;;;;;;;;11.62;92.61;100118.56;5019749;28;19976;-64
2023/03/23 02:03:56;;;;;;;;;;;;;;;11.63;92.54;100102.41;5024866;28;19917;-65
2023/03/23 02:06:21;;;;;;;;;;;;;;;11.67;92.55;100108.16;5026422;28;19917;-63
2023/03/23 02:08:48;;;;;;;;;;;;;;;11.65;92.20;100104.84;5029616;28;20393;-64
2023/03/23 02:11:17;;;;;;;;;;;;;;;11.62;92.20;100086.63;5027719;28;19925;-64
2023/03/23 02:13:43;;;;;;;;;;;;;;;11.65;91.95;100088.91;5023928;28;19936;-65
2023/03/23 02:16:15;;;;;;;;;;;;;;;11.64;92.41;100079.28;5030150;28;19921;-65
2023/03/23 02:18:40;;;;;;;;;;;;;;;11.64;92.06;100084.59;5019386;28;19921;-65
2023/03/23 02:21:23;;;;;;;;;;;;;;;11.63;91.69;100088.28;5027216;28;19971;-64
2023/03/23 02:24:08;;;;;;;;;;;;;;;11.67;91.68;100089.53;5023779;28;19924;-65
2023/03/23 02:26:33;;;;;;;;;;;;;;;11.67;91.60;100086.88;5017322;28;20004;-65
2023/03/23 02:29:14;;;;;;;;;;;;;;;11.71;91.18;100090.78;5022150;28;20513;-64
2023/03/23 02:31:48;;;;;;;;;;;;;;;11.75;90.85;100100.00;5029853;28;19924;-64
2023/03/23 02:34:17;;;;;;;;;;;;;;;11.76;90.45;100101.63;5022367;28;20340;-64
2023/03/23 02:36:50;;;;;;;;;;;;;;;11.78;90.22;100099.63;5024848;28;19918;-65
2023/03/23 02:39:24;;;;;;;;;;;;;;;11.79;90.05;100094.13;5032229;28;20563;-65
2023/03/23 02:41:55;;;;;;;;;;;;;;;11.79;90.05;100087.97;5021694;28;20032;-63
2023/03/23 02:44:21;;;;;;;;;;;;;;;11.81;89.88;100079.78;5026593;28;19955;-64
2023/03/23 02:46:48;;;;;;;;;;;;;;;11.81;89.75;100093.91;5028730;28;19971;-65
2023/03/23 02:49:15;;;;;;;;;;;;;;;11.83;89.68;100097.19;5027680;28;20321;-65
2023/03/23 02:51:43;;;;;;;;;;;;;;;11.84;89.30;100092.69;5022062;28;20038;-65
2023/03/23 02:54:09;;;;;;;;;;;;;;;11.85;89.18;100097.00;5026013;28;19962;-64
2023/03/23 02:56:34;;;;;;;;;;;;;;;11.85;89.28;100081.03;5020011;28;20345;-64
2023/03/23 02:59:00;;;;;;;;;;;;;;;11.85;89.14;100083.69;5027705;28;20371;-64
2023/03/23 03:01:25;;;;;;;;;;;;;;;11.85;89.32;100079.19;5026902;28;19967;-65
2023/03/23 03:03:52;;;;;;;;;;;;;;;11.84;89.24;100074.91;5015499;28;19943;-65
2023/03/23 03:06:29;;;;;;;;;;;;;;;11.87;88.84;100092.34;5026761;28;19921;-64
2023/03/23 03:09:03;;;;;;;;;;;;;;;11.88;88.86;100093.97;5022542;28;19955;-65
2023/03/23 03:11:30;;;;;;;;;;;;;;;11.88;88.80;100091.31;5023236;28;19921;-65
2023/03/23 03:14:00;;;;;;;;;;;;;;;11.90;89.01;100092.75;5018244;28;20015;-65
2023/03/23 03:16:45;;;;;;;;;;;;;;;11.93;88.68;100097.69;5026821;28;19917;-65
2023/03/23 03:19:29;;;;;;;;;;;;;;;11.93;88.64;100096.88;5024012;28;20000;-65
2023/03/23 03:21:57;;;;;;;;;;;;;;;11.94;88.54;100103.81;5027510;28;19924;-65
2023/03/23 03:24:23;;;;;;;;;;;;;;;11.94;88.47;100094.00;5025594;28;20015;-64
2023/03/23 03:26:51;;;;;;;;;;;;;;;11.93;88.16;100095.03;5027592;28;19991;-64
2023/03/23 03:29:18;;;;;;;;;;;;;;;11.96;88.09;100091.97;5013284;28;20403;-64
2023/03/23 03:31:47;;;;;;;;;;;;;;;11.99;87.67;100099.53;5028800;28;19921;-64
2023/03/23 03:34:17;;;;;;;;;;;;;;;11.99;87.48;100090.75;5027064;28;19920;-64
2023/03/23 03:36:43;;;;;;;;;;;;;;;12.02;87.52;100106.31;5024953;28;19917;-65
2023/03/23 03:39:09;;;;;;;;;;;;;;;12.02;87.16;100091.16;5027088;28;19932;-64
2023/03/23 03:41:35;;;;;;;;;;;;;;;12.03;87.11;100090.16;5021625;28;19925;-65
2023/03/23 03:44:00;;;;;;;;;;;;;;;12.02;86.68;100101.00;5023565;28;19956;-65
2023/03/23 03:46:29;;;;;;;;;;;;;;;12.03;86.49;100097.31;5019894;28;19964;-64
2023/03/23 03:48:56;;;;;;;;;;;;;;;12.05;86.21;100095.25;5019836;28;19917;-65
2023/03/23 03:51:21;;;;;;;;;;;;;;;12.08;85.55;100095.69;5021449;28;19953;-65
2023/03/23 03:53:46;;;;;;;;;;;;;;;12.08;85.69;100089.53;5028314;28;19959;-64
2023/03/23 03:56:13;;;;;;;;;;;;;;;12.06;85.33;100089.75;5027433;28;20276;-65
2023/03/23 03:58:38;;;;;;;;;;;;;;;12.07;85.03;100101.22;5021696;28;19925;-65
2023/03/23 04:01:04;;;;;;;;;;;;;;;12.08;85.10;100097.53;5026299;28;19917;-64
2023/03/23 04:03:29;;;;;;;;;;;;;;;12.10;84.50;100090.97;5015163;28;19960;-65
2023/03/23 04:05:55;;;;;;;;;;;;;;;12.15;84.35;100094.91;5024345;28;20520;-64
2023/03/23 04:08:21;;;;;;;;;;;;;;;12.12;83.84;100095.28;5022539;28;20286;-65
2023/03/23 04:10:47;;;;;;;;;;;;;;;12.14;83.63;100101.22;5021245;28;19975;-64
2023/03/23 04:13:12;;;;;;;;;;;;;;;12.13;83.49;100103.06;5026228;28;19964;-64
2023/03/23 04:15:38;;;;;;;;;;;;;;;12.12;83.49;100105.94;5022475;28;19917;-63
2023/03/23 04:18:05;;;;;;;;;;;;;;;12.08;83.55;100095.69;5024067;28;20448;-64
2023/03/23 04:20:30;;;;;;;;;;;;;;;12.06;83.00;100096.91;5026021;28;19917;-64
2023/03/23 04:22:56;;;;;;;;;;;;;;;12.07;83.20;100106.53;5021844;28;19917;-64
2023/03/23 04:25:21;;;;;;;;;;;;;;;12.03;83.04;100103.44;5022443;28;19921;-64
2023/03/23 04:27:52;;;;;;;;;;;;;;;12.03;83.00;100123.91;5023634;28;19998;-64
2023/03/23 04:30:18;;;;;;;;;;;;;;;12.04;82.82;100115.75;5023637;28;19929;-64
2023/03/23 04:32:43;;;;;;;;;;;;;;;12.01;82.78;100115.31;5018151;28;19924;-64
2023/03/23 04:35:10;;;;;;;;;;;;;;;12.03;82.76;100135.38;5026423;28;19917;-65
2023/03/23 04:37:36;;;;;;;;;;;;;;;11.98;82.61;100137.81;5027619;28;19946;-64
2023/03/23 04:40:11;;;;;;;;;;;;;;;11.96;82.76;100129.22;5024451;28;20599;-65
2023/03/23 04:42:37;;;;;;;;;;;;;;;11.94;83.17;100141.91;5018844;28;19917;-64
2023/03/23 04:45:03;;;;;;;;;;;;;;;11.92;82.98;100143.94;5006307;28;19925;-64
2023/03/23 04:47:31;;;;;;;;;;;;;;;11.89;83.36;100143.50;5018746;28;19924;-63
2023/03/23 04:49:57;;;;;;;;;;;;;;;11.85;83.56;100147.56;5027096;28;20440;-64
2023/03/23 04:52:24;;;;;;;;;;;;;;;11.77;83.65;100133.38;5026785;28;19925;-64
2023/03/23 04:54:50;;;;;;;;;;;;;;;11.70;84.06;100134.34;5019921;28;19956;-64
2023/03/23 04:57:15;;;;;;;;;;;;;;;11.73;84.06;100128.63;5022183;28;20689;-64
2023/03/23 04:59:40;;;;;;;;;;;;;;;11.76;83.80;100131.72;5024075;28;20059;-64
2023/03/23 05:02:06;;;;;;;;;;;;;;;11.75;83.92;100122.09;5022822;28;19917;-63
2023/03/23 05:04:33;;;;;;;;;;;;;;;11.78;83.76;100120.91;5017744;28;19948;-65
2023/03/23 05:06:58;;;;;;;;;;;;;;;11.83;83.29;100122.97;5031389;28;19924;-65
2023/03/23 05:09:23;;;;;;;;;;;;;;;11.81;83.70;100125.84;5026047;28;20298;-64
2023/03/23 05:11:48;;;;;;;;;;;;;;;11.78;83.47;100129.72;5030168;28;20379;-64
2023/03/23 05:14:13;;;;;;;;;;;;;;;11.77;83.74;100130.69;5021439;28;20375;-64
2023/03/23 05:16:39;;;;;;;;;;;;;;;11.75;83.58;100116.78;5029282;28;19928;-64
2023/03/23 05:19:05;;;;;;;;;;;;;;;11.75;83.44;100123.94;5028883;28;20004;-64
2023/03/23 05:21:30;;;;;;;;;;;;;;;11.79;83.68;100128.69;5028101;28;20347;-65
2023/03/23 05:23:56;;;;;;;;;;;;;;;11.79;83.31;100134.03;5026233;28;19917;-65
2023/03/23 05:26:21;;;;;;;;;;;;;;;11.81;83.48;100144.47;5021820;28;19917;-64
2023/03/23 05:28:48;;;;;;;;;;;;;;;11.79;83.40;100128.69;5025378;28;19959;-64
2023/03/23 05:31:13;;;;;;;;;;;;;;;11.79;83.52;100130.53;5020723;28;19921;-64
2023/03/23 05:33:38;;;;;;;;;;;;;;;11.78;83.26;100127.06;5015050;28;20437;-64
2023/03/23 05:36:05;;;;;;;;;;;;;;;11.78;83.46;100129.72;5024337;28;19940;-64
2023/03/23 05:38:30;;;;;;;;;;;;;;;11.78;83.33;100132.38;5028780;28;19917;-65
2023/03/23 05:40:59;;;;;;;;;;;;;;;11.75;83.74;100138.06;5023283;28;19917;-65
2023/03/23 05:43:25;;;;;;;;;;;;;;;11.73;83.40;100134.78;5024673;28;19925;-64
2023/03/23 05:45:50;;;;;;;;;;;;;;;11.73;83.73;100144.59;5019898;28;19913;-64
2023/03/23 05:48:16;;;;;;;;;;;;;;;11.73;83.84;100137.44;5026691;28;19917;-64
2023/03/23 05:50:41;;;;;;;;;;;;;;;11.71;83.84;100139.47;5024470;28;19921;-64
2023/03/23 05:53:06;;;;;;;;;;;;;;;11.71;83.94;100136.81;5023858;28;19921;-64
2023/03/23 05:55:31;;;;;;;;;;;;;;;11.68;83.78;100144.34;5026784;28;19924;-64
2023/03/23 05:57:57;;;;;;;;;;;;;;;11.69;83.82;100148.66;5025046;28;20004;-64
2023/03/23 06:00:23;;;;;;;;;;;;;;;11.70;83.85;100140.50;5023895;28;21646;-64
2023/03/23 06:02:48;;;;;;;;;;;;;;;11.67;83.88;100151.53;5022990;28;19918;-64
2023/03/23 06:05:15;;;;;;;;;;;;;;;11.65;83.89;100147.41;5018566;28;19964;-63
2023/03/23 06:07:40;;;;;;;;;;;;;;;11.64;84.11;100148.44;5025597;28;19919;-65
2023/03/23 06:10:06;;;;;;;;;;;;;;;11.61;84.50;100152.31;5026430;28;19921;-63
2023/03/23 06:12:32;;;;;;;;;;;;;;;11.62;84.63;100155.78;5023455;28;20322;-64
2023/03/23 06:14:57;;;;;;;;;;;;;;;11.58;84.78;100160.66;5029059;28;19917;-64
2023/03/23 06:17:22;;;;;;;;;;;;;;;11.58;84.95;100168.66;5024636;28;19975;-64
2023/03/23 06:19:49;;;;;;;;;;;;;;;11.61;84.46;100172.75;5023136;28;19921;-64
2023/03/23 06:22:15;;;;;;;;;;;;;;;11.62;84.36;100183.19;5022348;28;20003;-64
2023/03/23 06:24:40;;;;;;;;;;;;;;;11.63;84.55;100176.03;5027558;28;20347;-63
2023/03/23 06:27:05;;;;;;;;;;;;;;;11.63;84.47;100189.34;5024606;28;19924;-64
2023/03/23 06:29:31;;;;;;;;;;;;;;;11.62;84.91;100190.34;5024778;28;20013;-64
2023/03/23 06:31:58;;;;;;;;;;;;;;;11.59;84.82;100198.72;5025335;28;19921;-63
2023/03/23 06:34:24;;;;;;;;;;;;;;;11.60;84.77;100203.03;5024478;28;20434;-64
2023/03/23 06:36:49;;;;;;;;;;;;;;;11.52;84.88;100211.94;5022651;28;19924;-64
2023/03/23 06:39:15;;;;;;;;;;;;;;;11.34;85.51;100216.91;5022746;28;19913;-64
2023/03/23 06:41:40;;;;;;;;;;;;;;;11.22;86.39;100205.13;5023635;28;19971;-64
2023/03/23 06:44:06;;;;;;;;;;;;;;;11.21;87.03;100206.16;5027096;28;19917;-64
2023/03/23 06:46:31;;;;;;;;;;;;;;;11.25;87.21;100210.88;5018748;28;19921;-65
2023/03/23 06:48:57;;;;;;;;;;;;;;;11.26;87.50;100217.84;5021790;28;19921;-65
2023/03/23 06:51:22;;;;;;;;;;;;;;;11.17;87.79;100229.63;5026003;28;19929;-64
2023/03/23 06:53:47;;;;;;;;;;;;;;;11.06;88.83;100220.31;5019960;28;19913;-65
2023/03/23 06:56:13;;;;;;;;;;;;;;;10.93;89.54;100227.31;5021819;28;20460;-65
2023/03/23 06:58:38;;;;;;;;;;;;;;;10.91;89.74;100219.53;5015758;28;19918;-64
2023/03/23 07:01:04;;;;;;;;;;;;;;;10.81;91.17;100248.25;5026318;28;19923;-65
2023/03/23 07:03:30;;;;;;;;;;;;;;;10.46;93.20;100257.81;5025391;28;19917;-65
2023/03/23 07:05:56;;;;;;;;;;;;;;;10.24;95.13;100252.41;5026237;28;19921;-65
2023/03/23 07:08:21;;;;;;;;;;;;;;;10.04;96.94;100239.81;5022208;28;20040;-64
2023/03/23 07:10:47;;;;;;;;;;;;;;;9.92;98.62;100240.28;5026928;28;19956;-64
2023/03/23 07:13:12;;;;;;;;;;;;;;;9.80;100.00;100239.06;5025140;28;19927;-64
2023/03/23 07:15:38;;;;;;;;;;;;;;;9.73;100.00;100248.75;5025938;28;20306;-64
2023/03/23 07:18:03;;;;;;;;;;;;;;;9.70;100.00;100251.75;5021191;28;19952;-65
2023/03/23 07:20:28;;;;;;;;;;;;;;;9.65;100.00;100246.16;5027822;28;19917;-64
2023/03/23 07:22:54;;;;;;;;;;;;;;;9.62;100.00;100244.69;5024393;28;20444;-64
2023/03/23 07:25:20;;;;;;;;;;;;;;;9.61;100.00;100245.72;5023108;28;19953;-65
2023/03/23 07:27:45;;;;;;;;;;;;;;;9.61;100.00;100232.44;5028196;28;19975;-64
2023/03/23 07:30:11;;;;;;;;;;;;;;;9.63;100.00;100233.09;5024626;28;19956;-64
2023/03/23 07:32:37;;;;;;;;;;;;;;;9.68;100.00;100234.38;5025798;28;20383;-64
2023/03/23 07:35:03;;;;;;;;;;;;;;;9.69;100.00;100236.84;5016001;28;19992;-65
2023/03/23 07:37:28;;;;;;;;;;;;;;;9.71;100.00;100236.66;5011000;28;19917;-63
2023/03/23 07:39:54;;;;;;;;;;;;;;;9.70;100.00;100235.84;5008890;28;19942;-64
2023/03/23 07:42:19;;;;;;;;;;;;;;;9.68;100.00;100263.53;5016834;28;19979;-63
2023/03/23 07:44:44;;;;;;;;;;;;;;;9.59;100.00;100271.56;5017032;28;19925;-65
2023/03/23 07:47:09;;;;;;;;;;;;;;;9.44;100.00;100262.72;5017230;28;19924;-64
2023/03/23 07:49:35;;;;;;;;;;;;;;;9.30;100.00;100256.38;5016950;28;19917;-64
2023/03/23 07:52:01;;;;;;;;;;;;;;;9.18;100.00;100260.44;5019335;28;20340;-64
2023/03/23 07:54:26;;;;;;;;;;;;;;;9.09;100.00;100273.91;5027074;28;19913;-64
2023/03/23 07:56:51;;;;;;;;;;;;;;;9.04;100.00;100278.91;5023492;28;19924;-64
2023/03/23 07:59:16;;;;;;;;;;;;;;;9.06;100.00;100282.19;5027384;28;19917;-65
2023/03/23 08:01:42;;;;;;;;;;;;;;;9.14;100.00;100287.44;5028430;28;19917;-65
2023/03/23 08:04:07;;;;;;;;;;;;;;;9.22;100.00;100284.75;5022471;28;19914;-64
2023/03/23 08:06:33;;;;;;;;;;;;;;;9.26;99.58;100286.06;5026088;28;20460;-64
2023/03/23 08:09:06;;;;;;;;;;;;;;;9.29;98.46;100280.41;5023074;28;19921;-64
2023/03/23 08:11:32;;;;;;;;;;;;;;;9.38;98.06;100283.81;5025116;28;19927;-64
2023/03/23 08:13:57;;;;;;;;;;;;;;;9.43;98.10;100303.50;5026978;28;19913;-64
2023/03/23 08:16:24;;;;;;;;;;;;;;;9.50;97.57;100312.38;5020375;28;19913;-64
2023/03/23 08:18:49;;;;;;;;;;;;;;;9.59;96.97;100303.38;5021584;28;19948;-64
2023/03/23 08:21:15;;;;;;;;;;;;;;;9.68;96.24;100300.66;5025308;28;19913;-63
2023/03/23 08:23:40;;;;;;;;;;;;;;;9.74;95.98;100286.69;5025787;28;20411;-64
2023/03/23 08:26:06;;;;;;;;;;;;;;;9.79;95.88;100301.06;5026297;28;20000;-64
2023/03/23 08:28:32;;;;;;;;;;;;;;;9.84;95.66;100305.84;5021033;28;19983;-64
2023/03/23 08:30:57;;;;;;;;;;;;;;;9.89;95.34;100295.53;5028043;28;20370;-64
2023/03/23 08:33:22;;;;;;;;;;;;;;;9.91;95.17;100304.13;5017813;28;19921;-63
2023/03/23 08:35:54;;;;;;;;;;;;;;;9.92;95.44;100308.41;5012263;28;19944;-64
2023/03/23 08:38:21;;;;;;;;;;;;;;;9.95;95.12;100297.44;5018601;28;19968;-63
2023/03/23 08:40:47;;;;;;;;;;;;;;;9.97;94.98;100294.63;5020381;28;19929;-63
2023/03/23 08:43:12;;;;;;;;;;;;;;;10.01;94.58;100286.09;5016305;28;19917;-64
2023/03/23 08:45:37;;;;;;;;;;;;;;;10.08;94.53;100281.72;5026483;28;19979;-64
2023/03/23 08:48:03;;;;;;;;;;;;;;;10.14;94.93;100294.28;5024516;28;19971;-64
2023/03/23 08:50:28;;;;;;;;;;;;;;;10.18;94.41;100297.41;5016162;28;20007;-64
2023/03/23 08:52:54;;;;;;;;;;;;;;;10.18;93.82;100311.50;5022867;28;19960;-63
2023/03/23 08:55:20;;;;;;;;;;;;;;;10.17;93.36;100301.06;5022271;28;19921;-63
2023/03/23 08:57:46;;;;;;;;;;;;;;;10.17;92.96;100307.19;5033200;28;19962;-64
2023/03/23 09:00:17;;;;;;;;;;;;;;;10.19;93.10;100312.31;5018639;28;19924;-64
2023/03/23 09:02:44;;;;;;;;;;;;;;;10.22;93.32;100330.56;5022426;28;21084;-63
2023/03/23 09:05:12;;;;;;;;;;;;;;;10.23;92.90;100317.09;5019158;28;19917;-64
2023/03/23 09:07:38;;;;;;;;;;;;;;;10.26;92.88;100315.91;5019883;28;19952;-64
2023/03/23 09:10:03;;;;;;;;;;;;;;;10.29;92.43;100314.72;5022391;28;20362;-64
2023/03/23 09:12:29;;;;;;;;;;;;;;;10.31;92.29;100302.09;5020199;28;20008;-63
2023/03/23 09:14:55;;;;;;;;;;;;;;;10.34;91.70;100297.25;5021384;28;20521;-63
2023/03/23 09:17:20;;;;;;;;;;;;;;;10.37;91.39;100306.69;5018181;28;19918;-64
2023/03/23 09:19:45;;;;;;;;;;;;;;;10.46;91.86;100302.94;5019669;28;20052;-63
2023/03/23 09:22:11;;;;;;;;;;;;;;;10.61;92.00;100306.41;5019757;28;20272;-64
2023/03/23 09:24:37;;;;;;;;;;;;;;;10.76;91.45;100299.28;5022995;28;19928;-65
2023/03/23 09:27:02;;;;;;;;;;;;;;;10.94;91.03;100308.66;5020035;28;19928;-64
2023/03/23 09:29:27;;;;;;;;;;;;;;;11.15;90.82;100309.53;5026027;28;19921;-63
2023/03/23 09:31:55;;;;;;;;;;;;;;;11.23;89.91;100318.41;5026408;28;19921;-65
2023/03/23 09:34:21;;;;;;;;;;;;;;;11.29;89.31;100326.47;5024322;28;20406;-64
2023/03/23 09:36:48;;;;;;;;;;;;;;;11.37;88.79;100333.50;5023342;28;20460;-64
2023/03/23 09:39:13;;;;;;;;;;;;;;;11.38;88.52;100328.00;5020296;28;19924;-64
2023/03/23 09:41:57;;;;;;;;;;;;;;;11.47;88.07;100331.34;5011450;28;20396;-65
2023/03/23 09:44:35;;;;;;;;;;;;;;;11.49;88.46;100340.78;5017969;28;19996;-64
2023/03/23 09:47:09;;;;;;;;;;;;;;;11.65;88.44;100330.94;5020883;28;19913;-63
2023/03/23 09:49:40;;;;;;;;;;;;;;;11.74;88.08;100345.75;5020051;28;20310;-64
2023/03/23 09:52:11;;;;;;;;;;;;;;;11.86;87.68;100346.09;5014651;28;19929;-64
2023/03/23 09:54:38;;;;;;;;;;;;;;;11.85;86.79;100339.09;5019815;28;19917;-64
2023/03/23 09:57:04;;;;;;;;;;;;;;;11.84;86.67;100346.25;5026160;28;19929;-64
2023/03/23 09:59:42;;;;;;;;;;;;;;;11.85;86.13;100355.88;5026279;28;19921;-64
2023/03/23 10:02:34;;;;;;;;;;;;;;;11.90;85.55;100344.69;5023975;28;20280;-64
2023/03/23 10:05:15;;;;;;;;;;;;;;;12.01;85.41;100358.31;5017453;28;19925;-65
2023/03/23 10:07:40;;;;;;;;;;;;;;;12.06;84.99;100355.88;5030409;28;19916;-64
2023/03/23 10:10:12;;;;;;;;;;;;;;;12.20;84.46;100356.00;5024010;28;20326;-64
2023/03/23 10:12:42;;;;;;;;;;;;;;;12.23;83.68;100356.44;5021462;28;19929;-65
2023/03/23 10:15:45;;;;;;;;;;;;;;;12.38;83.35;100356.34;5022758;28;19922;-64
2023/03/23 10:18:29;;;;;;;;;;;;;;;12.43;82.27;100375.22;4943584;28;20467;-65
2023/03/23 10:21:01;;;;;;;;;;;;;;;12.28;82.00;100361.19;4945874;28;19919;-64
2023/03/23 10:23:38;;;;;;;;;;;;;;;12.33;81.43;100364.09;4991386;28;19913;-64
2023/03/23 10:26:11;;;;;;;;;;;;;;;12.43;81.64;100369.06;5027875;28;19924;-64
2023/03/23 10:28:38;;;;;;;;;;;;;;;12.56;81.13;100353.19;5027600;28;19924;-63
2023/03/23 10:31:05;;;;;;;;;;;;;;;12.68;81.19;100371.09;5020967;28;19929;-64
2023/03/23 10:33:37;;;;;;;;;;;;;;;12.74;80.78;100377.50;5021697;28;19917;-64
2023/03/23 10:36:09;;;;;;;;;;;;;;;12.73;80.03;100383.03;5016125;28;20032;-64
2023/03/23 10:38:39;;;;;;;;;;;;;;;12.61;79.57;100367.56;5019041;28;20011;-64
2023/03/23 10:41:12;;;;;;;;;;;;;;;12.53;79.74;100378.38;5022326;28;19971;-64
2023/03/23 10:43:39;;;;;;;;;;;;;;;12.56;80.10;100372.66;5017556;28;20004;-64
2023/03/23 10:46:20;;;;;;;;;;;;;;;12.55;79.70;100380.84;5026463;28;19917;-64
2023/03/23 10:48:48;;;;;;;;;;;;;;;12.53;78.78;100389.03;5023033;28;20023;-64
2023/03/23 10:51:14;;;;;;;;;;;;;;;12.53;78.67;100373.06;5019889;28;19921;-64
2023/03/23 10:53:44;;;;;;;;;;;;;;;12.62;78.14;100369.19;5011867;28;19924;-64
2023/03/23 10:56:25;;;;;;;;;;;;;;;12.82;78.35;100361.34;5026826;28;19961;-64
2023/03/23 10:58:51;;;;;;;;;;;;;;;13.03;77.66;100358.59;5022539;28;19959;-63
2023/03/23 11:01:18;;;;;;;;;;;;;;;13.13;76.41;100363.53;5020241;28;19945;-64
2023/03/23 11:03:48;;;;;;;;;;;;;;;13.17;76.06;100364.81;5018951;28;19917;-64
2023/03/23 11:06:20;;;;;;;;;;;;;;;13.13;75.89;100382.19;5024985;28;19924;-64
2023/03/23 11:08:51;;;;;;;;;;;;;;;13.06;75.62;100361.88;5016130;28;19921;-64
2023/03/23 11:11:19;;;;;;;;;;;;;;;13.06;75.73;100373.34;5017360;28;19921;-63
2023/03/23 11:13:46;;;;;;;;;;;;;;;12.99;75.85;100375.97;5024379;28;20309;-63
2023/03/23 11:16:21;;;;;;;;;;;;;;;13.06;75.11;100373.34;5021077;28;19917;-64
2023/03/23 11:18:47;;;;;;;;;;;;;;;13.06;74.78;100367.19;5023036;28;19957;-62
2023/03/23 11:21:13;;;;;;;;;;;;;;;13.11;75.07;100376.25;5026538;28;19955;-64
2023/03/23 11:23:49;;;;;;;;;;;;;;;13.10;74.95;100366.59;5028880;28;19913;-64
2023/03/23 11:26:16;;;;;;;;;;;;;;;13.19;74.66;100369.94;5029446;28;19925;-65
2023/03/23 11:28:43;;;;;;;;;;;;;;;13.37;73.98;100356.06;5025191;28;19959;-64
2023/03/23 11:31:09;;;;;;;;;;;;;;;13.40;73.81;100377.00;5024417;28;19955;-64
2023/03/23 11:33:40;;;;;;;;;;;;;;;13.53;73.66;100372.53;5019196;28;19960;-64
2023/03/23 11:36:06;;;;;;;;;;;;;;;13.61;73.97;100387.53;5017891;28;20003;-64
2023/03/23 11:38:32;;;;;;;;;;;;;;;13.48;72.22;100379.47;5022463;28;19917;-64
2023/03/23 11:40:59;;;;;;;;;;;;;;;13.53;73.22;100379.69;5024767;28;19920;-63
2023/03/23 11:43:24;;;;;;;;;;;;;;;13.62;73.03;100376.66;5019237;28;19917;-64
2023/03/23 11:45:54;;;;;;;;;;;;;;;13.75;73.33;100357.19;5023272;28;19920;-65
2023/03/23 11:48:25;;;;;;;;;;;;;;;13.85;73.27;100384.28;5028165;28;20631;-64
2023/03/23 11:50:55;;;;;;;;;;;;;;;13.85;71.75;100384.28;5026372;28;19921;-64
2023/03/23 11:53:30;;;;;;;;;;;;;;;13.71;71.03;100373.81;5024416;28;19917;-64
2023/03/23 11:56:06;;;;;;;;;;;;;;;13.76;71.54;100382.84;5028500;28;19920;-64
2023/03/23 11:58:32;;;;;;;;;;;;;;;13.79;71.28;100371.75;5018561;28;19940;-64
2023/03/23 12:01:05;;;;;;;;;;;;;;;13.79;71.62;100369.09;5028334;28;19917;-63
2023/03/23 12:03:40;;;;;;;;;;;;;;;13.78;70.85;100354.09;5020961;28;19920;-64
2023/03/23 12:06:06;;;;;;;;;;;;;;;13.76;70.83;100361.50;5019464;28;19913;-64
2023/03/23 12:08:51;;;;;;;;;;;;;;;13.72;70.43;100364.78;5013636;28;20022;-64
2023/03/23 12:11:23;;;;;;;;;;;;;;;13.79;71.51;100355.75;5021951;28;20288;-64
2023/03/23 12:14:01;;;;;;;;;;;;;;;13.99;72.05;100347.75;5027347;28;20382;-64
2023/03/23 12:16:45;;;;;;;;;;;;;;;14.06;71.68;100351.25;5026286;28;19925;-65
2023/03/23 12:19:10;;;;;;;;;;;;;;;14.09;72.39;100348.16;5022936;28;19917;-63
2023/03/23 12:21:54;;;;;;;;;;;;;;;14.11;71.35;100347.97;5023122;28;19967;-64
2023/03/23 12:24:55;;;;;;;;;;;;;;;14.26;71.42;100359.28;5027267;28;20279;-64
2023/03/23 12:27:24;;;;;;;;;;;;;;;14.57;71.74;100364.00;4927210;29;21132;-64
2023/03/23 12:29:55;;;;;;;;;;;;;;;14.62;70.13;100363.38;4998214;28;19913;-64
2023/03/23 12:32:30;;;;;;;;;;;;;;;14.69;69.61;100346.28;5024273;28;20004;-64
2023/03/23 12:35:05;;;;;;;;;;;;;;;14.80;69.16;100326.13;5020863;28;19963;-64
2023/03/23 12:37:33;;;;;;;;;;;;;;;14.80;68.20;100331.47;5021568;28;19917;-63
2023/03/23 12:40:08;;;;;;;;;;;;;;;14.79;68.13;100330.66;5021852;28;20402;-64
2023/03/23 12:42:47;;;;;;;;;;;;;;;14.90;68.06;100339.84;5025674;28;19921;-64